createdAt,value
2023-05-05T00:01:41.648Z,100663.34
2023-05-05T00:04:31.658Z,100663.34
2023-05-05T00:07:20.382Z,100662.72
2023-05-05T00:10:09.748Z,100653.69
2023-05-05T00:12:58.673Z,100663.94
2023-05-05T00:15:48.817Z,100652.03
2023-05-05T00:18:37.611Z,100649.38
2023-05-05T00:21:28.055Z,100641.75
2023-05-05T00:24:16.834Z,100634.47
2023-05-05T00:27:08.057Z,100633.25
2023-05-05T00:29:56.672Z,100632.41
2023-05-05T00:32:45.318Z,100638.59
2023-05-05T00:35:36.174Z,100628.09
2023-05-05T00:38:26.280Z,100625.97
2023-05-05T00:41:15.079Z,100623.28
2023-05-05T00:44:03.752Z,100616.69
2023-05-05T00:46:53.438Z,100619.13
2023-05-05T00:49:42.186Z,100619.94
2023-05-05T00:52:32.536Z,100606.81
2023-05-05T00:55:25.590Z,100609.66
2023-05-05T00:58:14.820Z,100612.72
2023-05-05T01:01:04.403Z,100609.84
2023-05-05T01:03:53.327Z,100608.81
2023-05-05T01:06:50.106Z,100609.22
2023-05-05T01:09:46.216Z,100611.69
2023-05-05T01:12:47.978Z,100607.56
2023-05-05T01:15:39.387Z,100607.56
2023-05-05T01:18:33.755Z,100612.25
2023-05-05T01:21:35.043Z,100614.94
2023-05-05T01:24:45.854Z,100614.09
2023-05-05T01:27:50.054Z,100619.06
2023-05-05T01:31:11.600Z,100611.25
2023-05-05T01:34:05.524Z,100612.25
2023-05-05T01:37:05.958Z,100616.13
2023-05-05T01:39:59.128Z,100616.97
2023-05-05T01:42:48.384Z,100612.84
2023-05-05T01:45:40.838Z,100609.72
2023-05-05T01:48:30.011Z,100612.38
2023-05-05T01:51:22.932Z,100615.44
2023-05-05T01:54:12.243Z,100604.84
2023-05-05T01:57:02.003Z,100607.06
2023-05-05T01:59:53.607Z,100602.09
2023-05-05T02:02:42.901Z,100601.25
2023-05-05T02:05:33.276Z,100597.59
2023-05-05T02:08:24.918Z,100597.59
2023-05-05T02:11:16.908Z,100588.13
2023-05-05T02:14:07.166Z,100591.81
2023-05-05T02:16:58.221Z,100576.44
2023-05-05T02:19:49.546Z,100577.44
2023-05-05T02:22:38.507Z,100581.13
2023-05-05T02:25:36.990Z,100577.63
2023-05-05T02:28:34.929Z,100575.81
2023-05-05T02:31:28.200Z,100577.44
2023-05-05T02:34:21.846Z,100570.19
2023-05-05T02:37:14.131Z,100569.19
2023-05-05T02:40:06.084Z,100571.84
2023-05-05T02:42:58.819Z,100569.56
2023-05-05T02:45:47.470Z,100568.75
2023-05-05T02:48:36.222Z,100581.25
2023-05-05T02:51:24.808Z,100584.78
2023-05-05T02:54:13.614Z,100591.31
2023-05-05T02:57:03.975Z,100590.66
2023-05-05T03:00:05.727Z,100596.25
2023-05-05T03:03:07.232Z,100590.16
2023-05-05T03:06:03.973Z,100590.97
2023-05-05T03:08:58.025Z,100588.13
2023-05-05T03:11:51.246Z,100587.50
2023-05-05T03:14:43.436Z,100590.53
2023-05-05T03:17:34.439Z,100585.00
2023-05-05T03:20:25.020Z,100587.22
2023-05-05T03:23:14.586Z,100578.59
2023-05-05T03:26:03.187Z,100573.25
2023-05-05T03:28:51.906Z,100578.97
2023-05-05T03:31:40.945Z,100584.31
2023-05-05T03:34:30.880Z,100581.88
2023-05-05T03:37:19.498Z,100583.31
2023-05-05T03:40:09.395Z,100582.28
2023-05-05T03:42:58.180Z,100581.03
2023-05-05T03:45:46.776Z,100582.66
2023-05-05T03:48:35.398Z,100581.03
2023-05-05T03:51:25.749Z,100583.94
2023-05-05T03:54:14.379Z,100585.97
2023-05-05T03:57:03.929Z,100593.34
2023-05-05T03:59:52.819Z,100595.38
2023-05-05T04:02:41.447Z,100590.03
2023-05-05T04:05:30.112Z,100596.56
2023-05-05T04:08:20.199Z,100597.28
2023-05-05T04:11:08.815Z,100597.03
2023-05-05T04:13:57.416Z,100587.63
2023-05-05T04:16:45.997Z,100593.47
2023-05-05T04:19:35.068Z,100589.78
2023-05-05T04:22:24.739Z,100592.56
2023-05-05T04:25:14.750Z,100602.03
2023-05-05T04:28:03.446Z,100594.22
2023-05-05T04:30:52.115Z,100594.50
2023-05-05T04:33:40.847Z,100595.50
2023-05-05T04:36:29.566Z,100591.75
2023-05-05T04:39:18.182Z,100604.13
2023-05-05T04:42:08.839Z,100611.50
2023-05-05T04:44:59.894Z,100614.38
2023-05-05T04:47:48.557Z,100617.22
2023-05-05T04:50:37.301Z,100614.81
2023-05-05T04:53:25.930Z,100616.78
2023-05-05T04:56:17.294Z,100614.69
2023-05-05T04:59:10.172Z,100611.00
2023-05-05T05:01:59.792Z,100614.19
2023-05-05T05:04:49.002Z,100615.78
2023-05-05T05:07:37.638Z,100610.59
2023-05-05T05:10:26.219Z,100620.47
2023-05-05T05:13:15.617Z,100608.97
2023-05-05T05:16:07.556Z,100615.78
2023-05-05T05:18:56.254Z,100610.59
2023-05-05T05:21:44.890Z,100616.63
2023-05-05T05:24:34.763Z,100619.13
2023-05-05T05:27:23.557Z,100611.63
2023-05-05T05:30:12.922Z,100611.25
2023-05-05T05:33:02.938Z,100614.38
2023-05-05T05:35:51.601Z,100614.69
2023-05-05T05:38:40.207Z,100620.03
2023-05-05T05:41:28.854Z,100624.13
2023-05-05T05:44:17.416Z,100614.69
2023-05-05T05:47:06.194Z,100619.25
2023-05-05T05:49:56.229Z,100611.44
2023-05-05T05:52:44.846Z,100608.56
2023-05-05T05:55:33.444Z,100614.94
2023-05-05T05:58:22.024Z,100610.22
2023-05-05T06:01:10.707Z,100613.56
2023-05-05T06:03:59.324Z,100618.22
2023-05-05T06:06:49.962Z,100622.19
2023-05-05T06:09:38.582Z,100623.84
2023-05-05T06:12:27.460Z,100620.59
2023-05-05T06:15:16.209Z,100621.47
2023-05-05T06:18:04.984Z,100622.31
2023-05-05T06:20:53.754Z,100622.31
2023-05-05T06:23:43.987Z,100617.78
2023-05-05T06:26:32.639Z,100613.75
2023-05-05T06:29:22.273Z,100611.63
2023-05-05T06:32:12.639Z,100620.28
2023-05-05T06:35:01.272Z,100608.81
2023-05-05T06:37:52.190Z,100609.22
2023-05-05T06:40:45.161Z,100611.88
2023-05-05T06:43:33.790Z,100611.94
2023-05-05T06:46:22.506Z,100601.69
2023-05-05T06:49:11.340Z,100606.81
2023-05-05T06:51:59.992Z,100602.50
2023-05-05T06:54:48.528Z,100602.91
2023-05-05T06:57:38.673Z,100591.66
2023-05-05T07:00:27.507Z,100599.03
2023-05-05T07:03:16.236Z,100603.69
2023-05-05T07:06:05.225Z,100595.63
2023-05-05T07:08:54.497Z,100591.38
2023-05-05T07:12:02.037Z,100593.81
2023-05-05T07:14:52.236Z,100592.22
2023-05-05T07:17:41.105Z,100594.47
2023-05-05T07:20:29.694Z,100595.03
2023-05-05T07:23:18.420Z,100593.81
2023-05-05T07:26:07.562Z,100593.69
2023-05-05T07:28:58.710Z,100591.41
2023-05-05T07:31:49.087Z,100591.03
2023-05-05T07:34:38.272Z,100596.81
2023-05-05T07:37:27.093Z,100593.16
2023-05-05T07:40:15.823Z,100582.84
2023-05-05T07:43:05.019Z,100587.44
2023-05-05T07:45:53.785Z,100599.53
2023-05-05T07:48:43.782Z,100589.44
2023-05-05T07:51:34.596Z,100585.72
2023-05-05T07:54:23.701Z,100579.81
2023-05-05T07:57:14.660Z,100580.03
2023-05-05T08:00:03.416Z,100583.59
2023-05-05T08:02:53.479Z,100585.47
2023-05-05T08:05:43.674Z,100583.41
2023-05-05T08:08:32.781Z,100573.56
2023-05-05T08:11:23.369Z,100577.69
2023-05-05T08:14:12.038Z,100580.59
2023-05-05T08:17:00.678Z,100581.00
2023-05-05T08:19:49.348Z,100579.34
2023-05-05T08:22:39.315Z,100578.06
2023-05-05T08:25:27.989Z,100577.06
2023-05-05T08:28:16.604Z,100574.41
2023-05-05T08:31:05.735Z,100575.84
2023-05-05T08:33:54.421Z,100570.31
2023-05-05T08:36:43.090Z,100562.50
2023-05-05T08:39:33.736Z,100562.91
2023-05-05T08:42:35.560Z,100556.41
2023-05-05T08:45:27.019Z,100549.78
2023-05-05T08:48:19.364Z,100544.13
2023-05-05T08:51:10.261Z,100541.47
2023-05-05T08:54:03.660Z,100549.09
2023-05-05T08:56:56.485Z,100548.47
2023-05-05T08:59:46.359Z,100546.63
2023-05-05T09:02:37.063Z,100553.66
2023-05-05T09:05:28.830Z,100542.53
2023-05-05T09:08:17.781Z,100537.88
2023-05-05T09:11:06.626Z,100531.03
2023-05-05T09:13:56.713Z,100533.97
2023-05-05T09:16:45.924Z,100542.34
2023-05-05T09:19:34.677Z,100537.59
2023-05-05T09:22:34.874Z,100536.38
2023-05-05T09:25:23.465Z,100534.78
2023-05-05T09:28:14.199Z,100538.94
2023-05-05T09:31:16.167Z,100534.41
2023-05-05T09:34:16.897Z,100542.63
2023-05-05T09:37:06.115Z,100550.84
2023-05-05T09:39:56.662Z,100543.41
2023-05-05T09:42:45.714Z,100546.34
2023-05-05T09:45:34.406Z,100543.06
2023-05-05T09:48:29.009Z,100548.41
2023-05-05T09:51:17.827Z,100537.69
2023-05-05T09:54:06.549Z,100532.50
2023-05-05T09:56:55.985Z,100528.19
2023-05-05T09:59:56.460Z,100525.94
2023-05-05T10:02:45.244Z,100525.91
2023-05-05T10:05:47.868Z,100533.13
2023-05-05T10:08:36.640Z,100527.34
2023-05-05T10:11:25.554Z,100522.22
2023-05-05T10:14:15.854Z,100518.72
2023-05-05T10:17:05.962Z,100510.97
2023-05-05T10:20:00.478Z,100519.88
2023-05-05T10:22:53.398Z,100510.97
2023-05-05T10:25:47.358Z,100524.53
2023-05-05T10:28:38.851Z,100517.09
2023-05-05T10:31:31.650Z,100508.63
2023-05-05T10:34:25.956Z,100505.97
2023-05-05T10:37:15.162Z,100499.41
2023-05-05T10:40:06.230Z,100492.25
2023-05-05T10:42:57.145Z,100487.97
2023-05-05T10:45:46.354Z,100492.47
2023-05-05T10:48:46.356Z,100490.81
2023-05-05T10:51:47.851Z,100487.31
2023-05-05T10:54:41.084Z,100498.97
2023-05-05T10:57:36.316Z,100489.09
2023-05-05T11:00:52.896Z,100490.75
2023-05-05T11:03:41.671Z,100480.94
2023-05-05T11:06:31.310Z,100468.97
2023-05-05T11:09:30.015Z,100483.81
2023-05-05T11:12:18.649Z,100483.84
2023-05-05T11:15:38.447Z,100485.44
2023-05-05T11:18:33.940Z,100490.34
2023-05-05T11:21:22.548Z,100466.28
2023-05-05T11:24:31.169Z,100461.56
2023-05-05T11:27:19.821Z,100474.31
2023-05-05T11:30:10.619Z,100460.31
2023-05-05T11:33:26.150Z,100452.91
2023-05-05T11:36:16.267Z,100453.13
2023-05-05T11:39:13.343Z,100443.47
2023-05-05T11:42:24.421Z,100454.78
2023-05-05T11:45:23.788Z,100438.31
2023-05-05T11:48:29.135Z,100440.00
2023-05-05T11:51:19.130Z,100435.47
2023-05-05T11:54:07.867Z,100427.00
2023-05-05T11:56:58.797Z,100434.47
2023-05-05T11:59:55.347Z,100429.91
2023-05-05T12:02:44.278Z,100421.69
2023-05-05T12:05:36.415Z,100428.06
2023-05-05T12:08:26.049Z,100428.47
2023-05-05T12:11:14.648Z,100423.75
2023-05-05T12:14:10.675Z,100415.91
2023-05-05T12:17:01.292Z,100431.94
2023-05-05T12:19:51.302Z,100429.06
2023-05-05T12:22:41.667Z,100426.59
2023-05-05T12:25:38.114Z,100421.44
2023-05-05T12:28:26.886Z,100417.53
2023-05-05T12:31:15.933Z,100416.75
2023-05-05T12:34:05.266Z,100429.88
2023-05-05T12:36:54.582Z,100424.94
2023-05-05T12:39:44.556Z,100432.78
2023-05-05T12:42:34.005Z,100432.78
2023-05-05T12:45:22.962Z,100417.53
2023-05-05T12:48:23.986Z,100416.72
2023-05-05T12:51:17.688Z,100416.31
2023-05-05T12:54:08.112Z,100414.66
2023-05-05T12:56:58.775Z,100399.44
2023-05-05T12:59:48.283Z,100410.53
2023-05-05T13:02:37.058Z,100393.28
2023-05-05T13:05:33.576Z,100406.03
2023-05-05T13:08:22.620Z,100400.69
2023-05-05T13:11:12.175Z,100396.75
2023-05-05T13:14:02.180Z,100396.75
2023-05-05T13:16:51.413Z,100394.06
2023-05-05T13:19:45.984Z,100391.81
2023-05-05T13:22:34.715Z,100388.72
2023-05-05T13:25:24.977Z,100382.59
2023-05-05T13:28:13.803Z,100379.50
2023-05-05T13:31:03.951Z,100385.06
2023-05-05T13:33:52.780Z,100379.31
2023-05-05T13:36:41.355Z,100374.38
2023-05-05T13:39:30.094Z,100378.88
2023-05-05T13:42:18.834Z,100361.19
2023-05-05T13:45:08.347Z,100361.81
2023-05-05T13:47:58.537Z,100362.84
2023-05-05T13:50:47.104Z,100348.00
2023-05-05T13:53:36.256Z,100350.66
2023-05-05T13:56:26.267Z,100345.13
2023-05-05T13:59:15.089Z,100348.81
2023-05-05T14:02:03.783Z,100339.78
2023-05-05T14:04:53.911Z,100344.09
2023-05-05T14:07:42.585Z,100342.44
2023-05-05T14:10:31.210Z,100335.22
2023-05-05T14:13:19.907Z,100331.53
2023-05-05T14:16:08.908Z,100320.44
2023-05-05T14:18:57.566Z,100329.88
2023-05-05T14:21:47.503Z,100331.34
2023-05-05T14:24:36.423Z,100318.38
2023-05-05T14:27:24.992Z,100326.19
2023-05-05T14:30:14.598Z,100325.38
2023-05-05T14:33:04.940Z,100314.63
2023-05-05T14:35:54.377Z,100311.78
2023-05-05T14:38:47.282Z,100317.13
2023-05-05T14:41:35.997Z,100317.13
2023-05-05T14:44:26.262Z,100316.28
2023-05-05T14:47:14.827Z,100325.94
2023-05-05T14:50:04.008Z,100307.22
2023-05-05T14:52:52.676Z,100313.38
2023-05-05T14:55:44.661Z,100307.94
2023-05-05T14:58:35.535Z,100304.63
2023-05-05T15:01:25.122Z,100294.34
2023-05-05T15:04:13.784Z,100300.88
2023-05-05T15:07:02.458Z,100293.03
2023-05-05T15:09:51.112Z,100292.19
2023-05-05T15:12:42.309Z,100287.38
2023-05-05T15:15:30.976Z,100287.53
2023-05-05T15:18:20.078Z,100273.50
2023-05-05T15:21:08.842Z,100284.97
2023-05-05T15:23:57.548Z,100289.28
2023-05-05T15:26:46.257Z,100288.28
2023-05-05T15:29:36.361Z,100292.50
2023-05-05T15:32:25.088Z,100281.34
2023-05-05T15:35:13.660Z,100274.94
2023-05-05T15:38:02.274Z,100268.59
2023-05-05T15:40:51.038Z,100276.22
2023-05-05T15:43:39.816Z,100278.31
2023-05-05T15:46:31.917Z,100271.09
2023-05-05T15:49:20.534Z,100277.72
2023-05-05T15:52:09.356Z,100273.22
2023-05-05T15:54:58.087Z,100273.03
2023-05-05T15:57:46.643Z,100270.19
2023-05-05T16:00:35.258Z,100264.63
2023-05-05T16:03:25.291Z,100262.91
2023-05-05T16:06:14.215Z,100261.78
2023-05-05T16:09:04.000Z,100265.25
2023-05-05T16:11:54.571Z,100262.22
2023-05-05T16:14:43.183Z,100265.91
2023-05-05T16:17:31.874Z,100258.06
2023-05-05T16:20:21.890Z,100259.94
2023-05-05T16:23:10.541Z,100262.66
2023-05-05T16:25:59.164Z,100253.22
2023-05-05T16:28:47.817Z,100256.97
2023-05-05T16:31:36.595Z,100249.53
2023-05-05T16:34:25.482Z,100257.75
2023-05-05T16:37:15.484Z,100256.94
2023-05-05T16:40:05.455Z,100254.94
2023-05-05T16:42:54.373Z,100237.84
2023-05-05T16:45:43.384Z,100250.59
2023-05-05T16:48:32.080Z,100248.16
2023-05-05T16:51:20.715Z,100249.59
2023-05-05T16:54:10.966Z,100246.72
2023-05-05T16:56:59.644Z,100245.94
2023-05-05T16:59:48.237Z,100251.47
2023-05-05T17:02:37.484Z,100257.44
2023-05-05T17:05:26.818Z,100249.25
2023-05-05T17:08:16.051Z,100249.22
2023-05-05T17:11:06.274Z,100248.56
2023-05-05T17:13:56.014Z,100245.50
2023-05-05T17:16:44.721Z,100246.13
2023-05-05T17:19:33.491Z,100247.13
2023-05-05T17:22:22.281Z,100244.47
2023-05-05T17:25:15.331Z,100236.84
2023-05-05T17:28:08.037Z,100233.16
2023-05-05T17:31:00.028Z,100238.50
2023-05-05T17:33:52.491Z,100241.41
2023-05-05T17:36:41.079Z,100231.31
2023-05-05T17:39:32.300Z,100231.50
2023-05-05T17:42:23.078Z,100229.88
2023-05-05T17:45:13.922Z,100231.91
2023-05-05T17:48:06.744Z,100229.47
2023-05-05T17:50:56.548Z,100239.34
2023-05-05T17:53:45.149Z,100232.56
2023-05-05T17:56:35.754Z,100236.06
2023-05-05T17:59:27.647Z,100232.78
2023-05-05T18:02:21.048Z,100237.91
2023-05-05T18:05:11.516Z,100239.56
2023-05-05T18:08:01.016Z,100241.63
2023-05-05T18:10:49.695Z,100236.31
2023-05-05T18:13:39.341Z,100241.88
2023-05-05T18:16:29.427Z,100239.81
2023-05-05T18:19:23.321Z,100238.94
2023-05-05T18:22:13.577Z,100235.66
2023-05-05T18:25:07.953Z,100254.19
2023-05-05T18:27:59.419Z,100256.28
2023-05-05T18:30:48.877Z,100250.06
2023-05-05T18:33:37.504Z,100253.78
2023-05-05T18:36:28.139Z,100263.88
2023-05-05T18:39:20.768Z,100262.44
2023-05-05T18:42:13.303Z,100271.06
2023-05-05T18:45:05.299Z,100271.88
2023-05-05T18:47:54.785Z,100259.13
2023-05-05T18:50:43.465Z,100260.78
2023-05-05T18:53:34.386Z,100268.19
2023-05-05T18:56:23.482Z,100268.97
2023-05-05T18:59:15.086Z,100272.69
2023-05-05T19:02:03.673Z,100272.06
2023-05-05T19:04:53.164Z,100281.75
2023-05-05T19:07:41.879Z,100278.47
2023-05-05T19:10:35.245Z,100281.34
2023-05-05T19:13:23.952Z,100277.84
2023-05-05T19:16:13.234Z,100284.81
2023-05-05T19:19:02.042Z,100283.59
2023-05-05T19:21:50.658Z,100280.06
2023-05-05T19:24:39.299Z,100283.81
2023-05-05T19:27:30.059Z,100276.78
2023-05-05T19:30:21.455Z,100279.03
2023-05-05T19:33:10.187Z,100277.00
2023-05-05T19:35:59.056Z,100279.44
2023-05-05T19:38:47.619Z,100279.69
2023-05-05T19:41:36.336Z,100282.72
2023-05-05T19:44:26.631Z,100282.31
2023-05-05T19:47:15.230Z,100279.38
2023-05-05T19:50:04.606Z,100280.03
2023-05-05T19:52:53.580Z,100276.31
2023-05-05T19:55:42.114Z,100275.50
2023-05-05T19:58:31.449Z,100273.41
2023-05-05T20:01:21.632Z,100278.78
2023-05-05T20:04:11.953Z,100270.75
2023-05-05T20:07:01.811Z,100280.84
2023-05-05T20:09:53.265Z,100268.28
2023-05-05T20:12:47.904Z,100260.88
2023-05-05T20:15:37.041Z,100257.78
2023-05-05T20:18:27.082Z,100256.97
2023-05-05T20:21:16.624Z,100269.31
2023-05-05T20:24:06.168Z,100259.00
2023-05-05T20:26:54.903Z,100263.97
2023-05-05T20:29:44.026Z,100256.59
2023-05-05T20:32:33.244Z,100260.28
2023-05-05T20:35:23.434Z,100250.00
2023-05-05T20:38:12.037Z,100254.13
2023-05-05T20:41:00.852Z,100248.34
2023-05-05T20:43:49.741Z,100253.91
2023-05-05T20:46:39.902Z,100252.06
2023-05-05T20:49:28.646Z,100249.59
2023-05-05T20:52:18.593Z,100255.16
2023-05-05T20:55:08.150Z,100251.28
2023-05-05T20:57:56.935Z,100255.81
2023-05-05T21:00:46.309Z,100262.38
2023-05-05T21:03:34.936Z,100264.25
2023-05-05T21:06:24.342Z,100256.63
2023-05-05T21:09:14.664Z,100256.88
2023-05-05T21:12:03.438Z,100248.25
2023-05-05T21:14:52.349Z,100249.25
2023-05-05T21:17:40.987Z,100244.75
2023-05-05T21:20:29.704Z,100243.53
2023-05-05T21:23:18.671Z,100241.88
2023-05-05T21:26:08.741Z,100240.63
2023-05-05T21:28:57.335Z,100239.59
2023-05-05T21:31:46.014Z,100229.13
2023-05-05T21:34:34.673Z,100227.28
2023-05-05T21:37:23.376Z,100228.31
2023-05-05T21:40:14.958Z,100227.50
2023-05-05T21:43:07.424Z,100222.94
2023-05-05T21:46:05.072Z,100222.53
2023-05-05T21:48:54.343Z,100217.19
2023-05-05T21:51:43.510Z,100218.81
2023-05-05T21:54:32.415Z,100217.19
2023-05-05T21:57:21.284Z,100221.31
2023-05-05T22:00:16.612Z,100212.06
2023-05-05T22:03:06.399Z,100219.06
2023-05-05T22:05:55.431Z,100218.47
2023-05-05T22:08:44.232Z,100215.97
2023-05-05T22:11:32.862Z,100203.22
2023-05-05T22:14:21.483Z,100215.53
2023-05-05T22:17:11.826Z,100225.22
2023-05-05T22:20:00.561Z,100229.13
2023-05-05T22:22:49.442Z,100232.44
2023-05-05T22:25:38.219Z,100231.81
2023-05-05T22:28:27.734Z,100236.13
2023-05-05T22:31:16.464Z,100250.91
2023-05-05T22:34:06.986Z,100256.28
2023-05-05T22:36:58.808Z,100257.31
2023-05-05T22:39:47.414Z,100268.41
2023-05-05T22:42:36.280Z,100284.44
2023-05-05T22:45:25.155Z,100281.78
2023-05-05T22:48:14.114Z,100278.69
2023-05-05T22:51:04.500Z,100282.41
2023-05-05T22:53:53.165Z,100280.94
2023-05-05T22:56:42.295Z,100285.06
2023-05-05T22:59:30.941Z,100285.91
2023-05-05T23:02:19.490Z,100294.13
2023-05-05T23:05:10.065Z,100301.09
2023-05-05T23:08:01.316Z,100303.59
2023-05-05T23:10:51.052Z,100312.22
2023-05-05T23:13:39.628Z,100305.66
2023-05-05T23:16:28.224Z,100309.72
2023-05-05T23:19:16.840Z,100295.75
2023-05-05T23:22:06.174Z,100292.06
2023-05-05T23:24:56.137Z,100292.88
2023-05-05T23:27:44.718Z,100287.97
2023-05-05T23:30:33.346Z,100296.97
2023-05-05T23:33:21.931Z,100298.00
2023-05-05T23:36:11.190Z,100292.47
2023-05-05T23:38:59.795Z,100293.69
2023-05-05T23:41:49.746Z,100299.66
2023-05-05T23:44:38.410Z,100292.88
2023-05-05T23:47:27.412Z,100294.72
2023-05-05T23:50:16.028Z,100286.72
2023-05-05T23:53:04.617Z,100290.41
2023-05-05T23:55:53.175Z,100290.41
2023-05-05T23:58:43.157Z,100280.72
